Cincinnati Municipal Airport Lunken Field Cincinnati US
ICAO: KLUK
IATA: LUK
Category: Medium
Scheduled Services: No

Elevation: 483 ft
TransAlt. 18000 ft.

Airport Communications:
APP/DEP:121
ATIS:120.25
CLNC DEL:121.9
CTAF:118.7
GND:121.9
DAYTON RDO:122.4
LUNKEN TWR:118.7
UNICOM:122.95

KLUK Zoom In..

Runways:

(A) RW 03L length 3802 ft width 100 ft
---- / hdg 27

(B) RW 03R length 6101 ft width 150 ft
---- / hdg 25

(C) RW 07 length 5128 ft width 100 ft
---- / hdg 66

(D) RW 21L length 6101 ft width 150 ft
ILS 110.90 / hdg 205

(E) RW 21R length 3802 ft width 100 ft
---- / hdg 207

(F) RW 25 length 5128 ft width 100 ft
---- / hdg 246

Location; KLUK
Day. 24 / Time. 01.53 Zulu
* Altimeter: 30.09
* Temperature: 03° c. 37.4°f.
* Wind from: 270° Speed 10 kn.
Dewpoint: 00° c.
Visibility: 10 Statute Miles.
Clouds: Scattered 1900 ft.
Clouds: Overcast 3500 ft.

KLUK 240153Z 27010KT 10SM SCT019 OVC035 03/00 A3009 RMK AO2 RAB22E47 SLP194 P0000 T00280000


Wind From 270°
Speed 10 kn.

YouTube Music Video
 
jpsmedia.com for Web Design  worldairports.se 2018   terms of use